Time;durP1;ratioP1;P1;durP2;ratioP2;P2;SDS_P1;SDS_P2;PMS_P1;PMS_P2;Temp;Humidity;BMP_temperature;BMP_pressure;BME280_temperature;BME280_humidity;BME280_pressure;Samples;Min_cycle;Max_cycle;Signal;HPM_P1;HPM_P2
2022/09/02 00:04:25;;;;;;;1.15;0.60;;;27.50;44.90;;;;;;10401617;28;20504;-35
2022/09/02 00:09:28;;;;;;;0.75;0.70;;;27.40;44.90;;;;;;10413564;28;20038;-34
2022/09/02 00:14:32;;;;;;;2.63;1.40;;;27.40;44.80;;;;;;10391733;28;20077;-35
2022/09/02 00:19:34;;;;;;;1.65;0.47;;;27.40;44.90;;;;;;10407527;28;20963;-34
2022/09/02 00:24:38;;;;;;;1.75;0.88;;;27.30;44.90;;;;;;10411045;28;20057;-34
2022/09/02 00:29:40;;;;;;;1.27;0.55;;;27.30;44.90;;;;;;10412574;28;20048;-33
2022/09/02 00:34:42;;;;;;;2.65;1.52;;;27.30;45.00;;;;;;10406562;28;20049;-34
2022/09/02 00:39:45;;;;;;;3.33;0.68;;;27.20;44.90;;;;;;10400271;28;20073;-34
2022/09/02 00:44:50;;;;;;;1.75;0.70;;;27.20;44.90;;;;;;10392038;28;20141;-33
2022/09/02 00:49:53;;;;;;;0.73;0.50;;;27.20;45.00;;;;;;10409636;28;20500;-34
2022/09/02 00:54:58;;;;;;;0.55;0.52;;;27.20;45.00;;;;;;10412223;28;20050;-34
2022/09/02 01:00:04;;;;;;;1.42;0.63;;;27.10;44.90;;;;;;10391464;28;20052;-34
2022/09/02 01:05:09;;;;;;;0.80;0.50;;;27.10;44.90;;;;;;10396228;28;20099;-33
2022/09/02 01:10:18;;;;;;;2.03;0.57;;;27.00;44.90;;;;;;10409417;28;20558;-33
2022/09/02 01:15:20;;;;;;;1.63;0.63;;;27.00;45.00;;;;;;10404511;28;20541;-34
2022/09/02 01:20:25;;;;;;;1.40;0.70;;;27.10;45.00;;;;;;10394403;28;20041;-34
2022/09/02 01:25:31;;;;;;;1.65;0.60;;;26.90;44.90;;;;;;10400947;28;20095;-34
2022/09/02 01:30:34;;;;;;;1.55;0.60;;;27.20;45.10;;;;;;10412048;28;20041;-34
2022/09/02 01:35:36;;;;;;;2.58;0.95;;;26.90;44.90;;;;;;10418850;28;20153;-35
2022/09/02 01:40:40;;;;;;;0.40;0.40;;;26.80;44.80;;;;;;10407286;28;20140;-34
2022/09/02 01:45:45;;;;;;;0.45;0.45;;;27.10;45.00;;;;;;10402938;28;20488;-31
2022/09/02 01:50:52;;;;;;;1.23;0.68;;;26.80;44.80;;;;;;10494216;28;20041;-33
2022/09/02 01:55:56;;;;;;;1.05;0.63;;;26.70;44.80;;;;;;10480749;28;20051;-33
2022/09/02 02:00:59;;;;;;;1.58;0.60;;;26.70;44.80;;;;;;10487724;28;20048;-36
2022/09/02 02:06:00;;;;;;;1.90;0.80;;;26.70;44.80;;;;;;10493716;28;20126;-32
2022/09/02 02:11:04;;;;;;;1.00;0.55;;;26.60;44.80;;;;;;10491322;28;20045;-34
2022/09/02 02:16:06;;;;;;;0.60;0.40;;;26.60;44.80;;;;;;10490142;28;20099;-35
2022/09/02 02:21:08;;;;;;;2.25;0.60;;;26.50;44.80;;;;;;10491745;28;20069;-35
2022/09/02 02:26:11;;;;;;;0.73;0.60;;;26.50;44.70;;;;;;10489051;28;20049;-29
2022/09/02 02:31:13;;;;;;;2.08;0.88;;;26.50;44.80;;;;;;10485516;28;20052;-35
2022/09/02 02:36:16;;;;;;;0.80;0.40;;;26.50;44.70;;;;;;10483156;28;20139;-34
2022/09/02 02:41:19;;;;;;;0.85;0.50;;;26.50;44.80;;;;;;10491367;28;20060;-34
2022/09/02 02:46:21;;;;;;;0.50;0.40;;;26.50;44.80;;;;;;10492977;28;20140;-35
2022/09/02 02:51:22;;;;;;;1.05;0.57;;;26.40;44.80;;;;;;10493588;28;20068;-34
2022/09/02 02:56:26;;;;;;;1.75;0.50;;;26.40;44.90;;;;;;10481992;28;20131;-35
2022/09/02 03:01:28;;;;;;;0.70;0.40;;;26.30;44.90;;;;;;10494427;28;20127;-34
2022/09/02 03:06:29;;;;;;;0.70;0.60;;;26.30;44.90;;;;;;10493056;28;20575;-33
2022/09/02 03:11:33;;;;;;;2.30;0.50;;;26.30;44.80;;;;;;10491913;28;20072;-35
2022/09/02 03:16:35;;;;;;;1.92;0.80;;;26.20;44.80;;;;;;10495653;28;20565;-34
2022/09/02 03:21:37;;;;;;;2.50;0.85;;;26.20;44.80;;;;;;10489851;28;20457;-36
2022/09/02 03:26:41;;;;;;;0.75;0.55;;;26.20;44.80;;;;;;10494195;28;20084;-33
2022/09/02 03:31:43;;;;;;;0.88;0.40;;;27.10;45.50;;;;;;10486919;28;20137;-34
2022/09/02 03:36:45;;;;;;;1.55;0.60;;;26.10;44.80;;;;;;10483108;28;20491;-35
2022/09/02 03:41:49;;;;;;;0.40;0.40;;;26.10;44.80;;;;;;10470041;28;20166;-33
2022/09/02 03:46:50;;;;;;;1.15;0.40;;;26.10;44.80;;;;;;10492970;28;20427;-33
2022/09/02 03:51:52;;;;;;;0.57;0.45;;;26.40;45.10;;;;;;10487248;28;20560;-34
2022/09/02 03:56:56;;;;;;;0.70;0.50;;;26.00;44.80;;;;;;10485607;28;20079;-33
2022/09/02 04:01:57;;;;;;;0.50;0.40;;;26.00;44.80;;;;;;10490692;28;20069;-34
2022/09/02 04:07:00;;;;;;;0.73;0.50;;;26.00;44.80;;;;;;10490362;28;20548;-34
2022/09/02 04:12:03;;;;;;;0.70;0.50;;;26.00;44.90;;;;;;10484019;28;20049;-35
2022/09/02 04:17:05;;;;;;;1.30;0.60;;;25.90;44.80;;;;;;10476898;28;20068;-35
2022/09/02 04:22:07;;;;;;;1.15;0.68;;;25.90;44.80;;;;;;10466151;28;20211;-33
2022/09/02 04:27:10;;;;;;;0.98;0.50;;;25.90;44.80;;;;;;10476252;28;20496;-34
2022/09/02 04:32:12;;;;;;;1.52;0.65;;;25.90;44.70;;;;;;10457341;28;20127;-34
2022/09/02 04:37:14;;;;;;;0.55;0.50;;;25.80;44.80;;;;;;10457894;28;20068;-34
2022/09/02 04:42:17;;;;;;;1.10;0.40;;;25.80;44.80;;;;;;10459630;28;20088;-30
2022/09/02 04:47:19;;;;;;;1.27;0.60;;;25.80;44.70;;;;;;10454137;28;20049;-34
2022/09/02 04:52:21;;;;;;;1.42;0.70;;;25.70;44.70;;;;;;10458802;28;20127;-35
2022/09/02 04:57:25;;;;;;;2.95;0.60;;;25.90;44.80;;;;;;10463285;28;20050;-34
2022/09/02 05:02:27;;;;;;;0.65;0.40;;;25.80;44.80;;;;;;10485786;28;20072;-34
2022/09/02 05:07:29;;;;;;;0.50;0.50;;;25.70;44.70;;;;;;10492771;28;20130;-34
2022/09/02 05:12:34;;;;;;;0.80;0.50;;;25.70;44.70;;;;;;10491524;28;20574;-33
2022/09/02 05:17:35;;;;;;;3.45;0.50;;;25.70;44.80;;;;;;10498170;28;20040;-34
2022/09/02 05:22:37;;;;;;;0.98;0.60;;;26.20;45.20;;;;;;10491635;28;20076;-35
2022/09/02 05:27:41;;;;;;;0.63;0.50;;;26.40;45.30;;;;;;10482599;28;20045;-35
2022/09/02 05:32:43;;;;;;;1.33;0.70;;;25.60;44.70;;;;;;10488802;28;20143;-34
2022/09/02 05:37:44;;;;;;;3.22;0.85;;;25.60;44.70;;;;;;10479097;28;20416;-35
2022/09/02 05:42:48;;;;;;;1.65;0.90;;;25.70;44.60;;;;;;10490429;28;20135;-33
2022/09/02 05:47:50;;;;;;;2.22;0.88;;;25.60;44.80;;;;;;10478750;28;20131;-33
2022/09/02 05:52:52;;;;;;;5.28;1.45;;;25.60;44.80;;;;;;10506104;28;20139;-35
2022/09/02 05:57:55;;;;;;;2.33;1.35;;;25.50;44.80;;;;;;10500154;28;20052;-33
2022/09/02 06:02:57;;;;;;;1.27;0.68;;;25.60;44.80;;;;;;10484503;28;20135;-35
2022/09/02 06:07:59;;;;;;;0.82;0.47;;;25.60;44.80;;;;;;10486436;28;20041;-36
2022/09/02 06:13:02;;;;;;;;;;;25.60;44.90;;;;;;10497117;28;20078;-34
2022/09/02 06:18:04;;;;;;;0.68;0.57;;;25.60;44.80;;;;;;10497769;28;19931;-34
2022/09/02 06:23:05;;;;;;;3.47;0.60;;;25.60;44.80;;;;;;10474126;28;20401;-33
2022/09/02 06:28:09;;;;;;;2.25;0.68;;;25.60;44.70;;;;;;10486289;28;20151;-35
2022/09/02 06:33:12;;;;;;;5.47;3.20;;;25.70;44.80;;;;;;10492233;28;20055;-35
2022/09/02 06:38:14;;;;;;;9.27;4.00;;;25.70;44.60;;;;;;10486286;28;20135;-35
2022/09/02 06:43:17;;;;;;;5.20;3.05;;;25.70;44.60;;;;;;10486476;28;20053;-34
2022/09/02 06:48:19;;;;;;;6.80;3.38;;;25.70;44.60;;;;;;10481494;28;20059;-35
2022/09/02 06:53:21;;;;;;;3.65;2.05;;;25.70;44.60;;;;;;10481923;28;20423;-34
2022/09/02 06:58:25;;;;;;;4.13;2.10;;;25.70;44.50;;;;;;10480705;28;20139;-34
2022/09/02 07:08:46;;;;;;;1.27;0.65;;;25.70;44.40;;;;;;10476607;28;20095;-34
2022/09/02 07:13:49;;;;;;;1.45;0.90;;;25.70;44.40;;;;;;10486476;28;20572;-33
2022/09/02 07:18:52;;;;;;;3.42;1.00;;;25.70;44.40;;;;;;10489597;28;20552;-34
2022/09/02 07:23:53;;;;;;;1.98;0.75;;;25.70;44.40;;;;;;10486333;28;20152;-34
2022/09/02 07:28:57;;;;;;;2.47;1.13;;;25.70;44.20;;;;;;10479744;28;20060;-35
2022/09/02 07:33:59;;;;;;;6.00;2.70;;;25.70;44.30;;;;;;10490472;28;20045;-34
2022/09/02 07:39:01;;;;;;;5.10;2.40;;;25.70;44.30;;;;;;10483405;28;20098;-34
2022/09/02 07:44:05;;;;;;;9.18;3.28;;;25.80;44.20;;;;;;10480788;28;20052;-34
2022/09/02 07:49:09;;;;;;;8.40;3.15;;;25.70;44.20;;;;;;10473864;28;20053;-34
2022/09/02 07:54:12;;;;;;;5.57;2.60;;;25.70;44.20;;;;;;10486277;28;20040;-34
2022/09/02 07:59:16;;;;;;;10.23;2.58;;;26.20;44.50;;;;;;10475073;28;20041;-34
2022/09/02 08:04:22;;;;;;;6.25;2.00;;;25.80;44.20;;;;;;10473599;28;20049;-34
2022/09/02 08:09:23;;;;;;;3.83;1.90;;;25.80;44.20;;;;;;10479989;28;20052;-33
2022/09/02 08:14:28;;;;;;;3.42;1.88;;;25.80;44.20;;;;;;10479631;28;20056;-34
2022/09/02 08:19:30;;;;;;;3.60;1.80;;;25.90;44.10;;;;;;10476589;28;20059;-34
2022/09/02 08:24:32;;;;;;;3.45;1.63;;;25.70;44.00;;;;;;10490270;28;20071;-34
2022/09/02 08:29:35;;;;;;;4.05;1.50;;;25.80;44.00;;;;;;10488260;28;20052;-33
2022/09/02 08:34:37;;;;;;;3.45;1.10;;;25.90;44.10;;;;;;10483574;28;20078;-34
2022/09/02 08:39:39;;;;;;;5.15;0.90;;;25.90;44.10;;;;;;10488167;28;20048;-34
2022/09/02 08:44:42;;;;;;;2.08;1.13;;;25.90;44.00;;;;;;10500062;28;20520;-34
2022/09/02 08:49:48;;;;;;;2.60;1.13;;;25.90;44.10;;;;;;10490023;28;20461;-34
2022/09/02 08:54:54;;;;;;;3.38;1.65;;;26.00;43.90;;;;;;10484975;28;20043;-35
2022/09/02 09:00:01;;;;;;;1.35;1.10;;;26.10;43.90;;;;;;10486537;28;20127;-33
2022/09/02 09:05:22;;;;;;;3.40;1.20;;;26.00;44.00;;;;;;10493411;28;20056;-34
2022/09/02 09:10:31;;;;;;;3.03;1.17;;;26.70;44.60;;;;;;10491512;28;20155;-34
2022/09/02 09:15:42;;;;;;;2.25;1.00;;;26.10;44.00;;;;;;10480518;28;20087;-34
2022/09/02 09:20:46;;;;;;;1.00;0.90;;;26.10;44.00;;;;;;10484669;28;20037;-35
2022/09/02 09:25:49;;;;;;;3.30;1.15;;;26.00;44.10;;;;;;10473500;28;20080;-35
2022/09/02 09:30:52;;;;;;;2.13;1.25;;;26.10;44.00;;;;;;10485326;28;20068;-34
2022/09/02 09:35:55;;;;;;;3.53;1.27;;;26.00;44.20;;;;;;10476497;28;20056;-34
2022/09/02 09:41:15;;;;;;;1.65;1.30;;;26.30;44.10;;;;;;10478482;28;20044;-34
2022/09/02 09:46:26;;;;;;;2.85;1.27;;;26.20;44.00;;;;;;10490138;28;20040;-35
2022/09/02 09:51:28;;;;;;;1.83;0.93;;;26.30;44.10;;;;;;10495554;28;20049;-35
2022/09/02 09:56:35;;;;;;;2.58;1.20;;;26.30;44.10;;;;;;10492532;28;20469;-35
2022/09/02 10:01:38;;;;;;;5.40;1.05;;;26.30;44.20;;;;;;10490695;28;20075;-34
2022/09/02 10:06:42;;;;;;;4.63;1.77;;;26.70;44.00;;;;;;10487499;28;20083;-34
2022/09/02 10:11:56;;;;;;;5.75;1.83;;;26.60;44.10;;;;;;10494569;28;20154;-34
2022/09/02 10:17:10;;;;;;;1.85;1.02;;;26.70;43.80;;;;;;10476872;28;20093;-33
2022/09/02 10:22:47;;;;;;;3.60;1.27;;;27.00;43.50;;;;;;10494656;28;20080;-34
2022/09/02 10:27:59;;;;;;;2.75;1.30;;;26.60;44.10;;;;;;10487459;28;20043;-34
2022/09/02 10:33:25;;;;;;;3.28;1.40;;;26.70;44.00;;;;;;10491435;28;21672;-35
2022/09/02 10:38:39;;;;;;;2.47;1.27;;;26.70;44.10;;;;;;10480701;28;20079;-34
2022/09/02 10:44:00;;;;;;;3.22;1.50;;;27.20;43.40;;;;;;10488788;28;20477;-35
2022/09/02 10:49:12;;;;;;;3.30;1.92;;;27.10;43.90;;;;;;10485944;28;20523;-35
2022/09/02 10:54:29;;;;;;;5.80;1.52;;;27.20;44.20;;;;;;10486552;28;20786;-34
2022/09/02 10:59:35;;;;;;;5.75;1.92;;;27.20;43.80;;;;;;10477295;28;20040;-32
2022/09/02 11:04:45;;;;;;;3.25;2.05;;;27.20;44.20;;;;;;10490314;28;20084;-35
2022/09/02 11:09:52;;;;;;;2.93;1.47;;;27.20;44.10;;;;;;10483966;28;20055;-34
2022/09/02 11:15:02;;;;;;;4.95;1.40;;;27.10;44.20;;;;;;10490629;28;20051;-33
2022/09/02 11:20:13;;;;;;;2.10;1.60;;;27.40;43.80;;;;;;10488966;28;20047;-32
2022/09/02 11:25:21;;;;;;;4.10;2.15;;;27.90;43.60;;;;;;10480176;28;20140;-33
2022/09/02 11:30:26;;;;;;;4.07;1.67;;;27.90;43.60;;;;;;10494275;28;20048;-34
2022/09/02 11:35:37;;;;;;;2.65;1.80;;;27.50;43.80;;;;;;10494137;28;20050;-34
2022/09/02 11:40:53;;;;;;;2.65;1.60;;;27.80;43.50;;;;;;10489910;28;20538;-34
2022/09/02 11:46:29;;;;;;;2.75;1.83;;;27.80;44.20;;;;;;10479641;28;20238;-32
2022/09/02 11:51:57;;;;;;;6.22;1.30;;;28.00;43.50;;;;;;10469239;28;20045;-34
2022/09/02 11:57:03;;;;;;;6.57;1.65;;;28.20;43.30;;;;;;10470708;28;20055;-35
2022/09/02 12:02:05;;;;;;;5.95;1.95;;;28.20;43.40;;;;;;10475823;28;20054;-34
2022/09/02 12:07:25;;;;;;;3.35;1.52;;;28.80;42.80;;;;;;10476606;28;20052;-34
2022/09/02 12:13:04;;;;;;;2.85;1.58;;;28.90;42.00;;;;;;10487561;28;20139;-33
2022/09/02 12:18:11;;;;;;;1.88;1.08;;;28.70;42.50;;;;;;10480526;28;20496;-34
2022/09/02 12:24:02;;;;;;;2.63;1.27;;;29.00;42.00;;;;;;10486651;28;20054;-35
2022/09/02 12:29:12;;;;;;;4.88;1.95;;;29.00;41.90;;;;;;10449218;28;20060;-33
2022/09/02 12:34:50;;;;;;;2.25;1.10;;;29.50;41.40;;;;;;10453934;28;20169;-35
2022/09/02 12:39:57;;;;;;;8.55;2.17;;;29.10;41.60;;;;;;10458729;28;20090;-37
2022/09/02 12:45:09;;;;;;;8.27;1.55;;;28.90;41.80;;;;;;10480856;28;20143;-32
2022/09/02 12:50:22;;;;;;;2.95;1.25;;;28.00;43.20;;;;;;10484312;28;20118;-34
2022/09/02 12:55:28;;;;;;;5.90;1.60;;;27.60;42.00;;;;;;10499645;28;20505;-35
2022/09/02 13:00:37;;;;;;;3.58;1.23;;;28.60;45.00;;;;;;10483058;28;20512;-35
2022/09/02 13:05:53;;;;;;;3.13;1.10;;;29.10;42.70;;;;;;10482743;28;20485;-33
2022/09/02 13:11:55;;;;;;;2.75;1.88;;;29.80;38.70;;;;;;10479513;28;20139;-37
2022/09/02 13:17:16;;;;;;;7.38;2.45;;;28.80;40.50;;;;;;10482421;28;20131;-35
2022/09/02 13:22:43;;;;;;;7.23;2.10;;;30.00;38.40;;;;;;10480957;28;21475;-34
2022/09/02 13:28:01;;;;;;;5.22;1.60;;;30.50;37.80;;;;;;10477550;28;20135;-34
2022/09/02 13:33:08;;;;;;;2.50;1.55;;;30.60;38.20;;;;;;10469753;28;20077;-35
2022/09/02 13:38:12;;;;;;;4.32;1.77;;;30.60;37.80;;;;;;10500087;28;20076;-34
2022/09/02 13:43:20;;;;;;;5.53;1.45;;;30.90;36.60;;;;;;10490716;28;20123;-35
2022/09/02 13:48:24;;;;;;;3.40;1.80;;;31.20;38.40;;;;;;10486873;28;20048;-34
2022/09/02 13:53:31;;;;;;;5.35;1.73;;;31.30;38.30;;;;;;10503018;28;20442;-34
2022/09/02 13:58:39;;;;;;;2.90;1.50;;;31.70;37.20;;;;;;10484304;28;20072;-35
2022/09/02 14:03:47;;;;;;;3.75;1.65;;;31.80;37.50;;;;;;10492583;28;20049;-33
2022/09/02 14:08:51;;;;;;;5.15;1.73;;;31.40;38.40;;;;;;10485664;28;20056;-35
2022/09/02 14:13:55;;;;;;;5.30;1.83;;;32.40;36.60;;;;;;10475889;28;20415;-34
2022/09/02 14:19:13;;;;;;;2.95;1.90;;;31.80;36.50;;;;;;10465494;28;20049;-34
2022/09/02 14:24:19;;;;;;;5.88;1.50;;;31.90;37.30;;;;;;10463732;28;20098;-34
2022/09/02 14:29:23;;;;;;;6.35;2.75;;;32.30;37.30;;;;;;10460259;28;20049;-32
2022/09/02 14:34:33;;;;;;;3.53;1.90;;;32.80;35.10;;;;;;10463085;28;20127;-34
2022/09/02 14:39:50;;;;;;;4.60;1.70;;;33.50;35.90;;;;;;10458404;28;20405;-33
2022/09/02 14:44:53;;;;;;;3.15;1.33;;;32.80;36.40;;;;;;10462239;28;20139;-35
2022/09/02 14:49:55;;;;;;;2.33;1.63;;;33.10;35.80;;;;;;10463640;28;20487;-34
2022/09/02 14:54:58;;;;;;;8.00;2.30;;;32.80;37.00;;;;;;10463673;28;20048;-34
2022/09/02 15:00:05;;;;;;;1.95;1.52;;;34.20;34.00;;;;;;10465085;28;20140;-34
2022/09/02 15:05:09;;;;;;;1.90;1.40;;;33.70;36.10;;;;;;10467117;28;20161;-34
2022/09/02 15:10:11;;;;;;;5.03;1.90;;;33.20;37.00;;;;;;10487997;28;20178;-35
2022/09/02 15:15:15;;;;;;;2.90;2.05;;;34.10;33.00;;;;;;10482057;28;20053;-35
2022/09/02 15:20:17;;;;;;;4.15;1.40;;;33.90;35.10;;;;;;10481965;28;20123;-34
2022/09/02 15:25:18;;;;;;;3.90;1.30;;;33.20;35.90;;;;;;10482845;28;20044;-34
2022/09/02 15:30:22;;;;;;;3.92;1.40;;;33.30;37.30;;;;;;10477509;28;20076;-35
2022/09/02 15:35:23;;;;;;;1.60;1.02;;;33.40;35.90;;;;;;10472392;28;20120;-34
2022/09/02 15:40:25;;;;;;;2.38;1.38;;;32.60;36.60;;;;;;10475183;28;20075;-34
2022/09/02 15:45:28;;;;;;;1.60;1.23;;;32.40;38.30;;;;;;10490389;28;20052;-35
2022/09/02 15:50:32;;;;;;;2.10;1.13;;;32.20;38.50;;;;;;10480326;28;20488;-36
2022/09/02 15:55:34;;;;;;;1.40;0.98;;;32.20;37.20;;;;;;10473575;28;20040;-36
2022/09/02 16:00:39;;;;;;;5.25;1.30;;;32.70;38.70;;;;;;10482968;28;20129;-35
2022/09/02 16:05:42;;;;;;;3.00;1.02;;;32.00;37.70;;;;;;10479892;28;20053;-34
2022/09/02 16:10:44;;;;;;;4.05;1.27;;;32.40;37.40;;;;;;10477010;28;20071;-33
2022/09/02 16:15:47;;;;;;;2.45;1.10;;;32.30;38.30;;;;;;10481192;28;20052;-33
2022/09/02 16:20:49;;;;;;;1.60;1.30;;;32.30;37.70;;;;;;10480075;28;20140;-34
2022/09/02 16:26:09;;;;;;;1.40;1.30;;;32.60;39.20;;;;;;10481615;28;20048;-34
2022/09/02 16:31:17;;;;;;;2.20;1.50;;;32.00;38.40;;;;;;10481468;28;20495;-33
2022/09/02 16:36:19;;;;;;;3.03;1.40;;;32.60;38.00;;;;;;10478837;28;20047;-34
2022/09/02 16:41:23;;;;;;;2.65;1.30;;;32.90;37.60;;;;;;10483868;28;20080;-33
2022/09/02 16:46:27;;;;;;;1.25;1.05;;;33.30;37.70;;;;;;10490913;28;20143;-36
2022/09/02 16:51:29;;;;;;;1.52;1.15;;;32.70;37.80;;;;;;10493147;28;20844;-35
2022/09/02 16:56:31;;;;;;;4.10;1.00;;;32.80;38.10;;;;;;10489010;28;20040;-36
2022/09/02 17:01:35;;;;;;;1.48;1.13;;;32.90;38.10;;;;;;10488088;28;20386;-35
2022/09/02 17:06:37;;;;;;;1.70;1.15;;;33.00;38.60;;;;;;10492397;28;20516;-35
2022/09/02 17:11:41;;;;;;;1.40;1.20;;;32.70;38.90;;;;;;10491063;28;20162;-34
2022/09/02 17:16:47;;;;;;;2.60;0.90;;;32.60;40.00;;;;;;10482503;28;20044;-33
2022/09/02 17:21:51;;;;;;;1.50;0.95;;;32.90;39.00;;;;;;10491989;28;20512;-34
2022/09/02 17:26:54;;;;;;;1.13;1.02;;;32.60;39.40;;;;;;10491155;28;20052;-34
2022/09/02 17:31:57;;;;;;;1.85;1.00;;;33.00;41.40;;;;;;10488582;28;20152;-34
2022/09/02 17:36:59;;;;;;;1.40;0.80;;;32.20;40.70;;;;;;10484616;28;20068;-35
2022/09/02 17:42:01;;;;;;;2.35;1.08;;;32.30;41.30;;;;;;10480842;28;20036;-35
2022/09/02 17:47:07;;;;;;;0.93;0.70;;;32.20;41.20;;;;;;10482232;28;20060;-36
2022/09/02 17:52:11;;;;;;;1.00;0.90;;;32.10;40.90;;;;;;10492535;28;20098;-37
2022/09/02 17:57:32;;;;;;;1.23;0.88;;;31.80;41.00;;;;;;10486614;28;20083;-35
2022/09/02 18:03:03;;;;;;;3.03;1.20;;;31.80;42.30;;;;;;10484416;28;20132;-34
2022/09/02 18:08:09;;;;;;;1.00;0.85;;;31.70;41.50;;;;;;10477574;28;20049;-34
2022/09/02 18:13:13;;;;;;;1.00;0.80;;;31.50;41.60;;;;;;10487805;28;20076;-36
2022/09/02 18:18:17;;;;;;;2.28;0.85;;;31.40;41.70;;;;;;10494943;28;20135;-34
2022/09/02 18:23:32;;;;;;;0.93;0.80;;;31.40;41.80;;;;;;10488979;28;20492;-36
2022/09/02 18:28:48;;;;;;;1.60;1.02;;;31.40;42.00;;;;;;10491952;28;20044;-35
2022/09/02 18:34:02;;;;;;;1.73;0.95;;;31.20;41.90;;;;;;10486848;28;20104;-37
2022/09/02 18:39:18;;;;;;;2.10;1.00;;;31.20;42.10;;;;;;10479234;28;20528;-36
2022/09/02 18:44:35;;;;;;;1.23;0.88;;;31.10;42.60;;;;;;10491062;28;20040;-36
2022/09/02 18:49:39;;;;;;;1.52;0.90;;;31.00;42.20;;;;;;10484316;28;20064;-35
2022/09/02 18:54:46;;;;;;;1.08;0.90;;;31.00;42.30;;;;;;10496375;28;20056;-34
2022/09/02 19:00:01;;;;;;;1.17;0.90;;;30.90;42.40;;;;;;10485703;28;20051;-35
2022/09/02 19:05:08;;;;;;;1.10;0.90;;;30.80;42.50;;;;;;10477540;28;20072;-34
2022/09/02 19:10:10;;;;;;;1.38;1.00;;;30.70;42.40;;;;;;10488408;28;20477;-35
2022/09/02 19:15:14;;;;;;;3.05;0.90;;;30.60;42.60;;;;;;10487492;28;20411;-32
2022/09/02 19:20:17;;;;;;;4.32;0.90;;;30.60;42.70;;;;;;10479776;28;20083;-35
2022/09/02 19:25:23;;;;;;;2.13;1.05;;;30.50;42.60;;;;;;10479209;28;20135;-35
2022/09/02 19:30:25;;;;;;;3.05;0.80;;;30.40;42.70;;;;;;10466632;28;20032;-34
2022/09/02 19:35:30;;;;;;;2.08;0.80;;;30.40;42.70;;;;;;10467783;28;20131;-34
2022/09/02 19:40:35;;;;;;;3.03;1.10;;;30.30;42.70;;;;;;10466269;28;20068;-35
2022/09/02 19:45:37;;;;;;;3.20;1.40;;;30.30;42.70;;;;;;10479867;28;20053;-35
2022/09/02 19:50:42;;;;;;;2.47;1.98;;;30.20;42.80;;;;;;10485396;28;20044;-35
2022/09/02 19:55:44;;;;;;;3.60;1.98;;;30.10;42.80;;;;;;10485889;28;20036;-35
2022/09/02 20:00:46;;;;;;;4.13;1.60;;;30.10;42.80;;;;;;10483196;28;20040;-36
2022/09/02 20:05:51;;;;;;;3.50;1.88;;;30.00;42.80;;;;;;10484108;28;20075;-35
2022/09/02 20:10:55;;;;;;;6.75;1.55;;;30.40;43.20;;;;;;10487885;28;20044;-35
2022/09/02 20:15:57;;;;;;;5.18;2.03;;;29.90;42.90;;;;;;10483138;28;20491;-34
2022/09/02 20:21:00;;;;;;;6.95;2.22;;;29.80;42.90;;;;;;10473296;28;20123;-35
2022/09/02 20:26:22;;;;;;;4.03;1.70;;;29.70;42.90;;;;;;10473630;28;20165;-34
2022/09/02 20:31:31;;;;;;;;;;;29.70;43.00;;;;;;10465581;28;20052;-35
2022/09/02 20:36:43;;;;;;;5.75;1.83;;;29.60;43.00;;;;;;10475451;28;19930;-33
2022/09/02 20:41:54;;;;;;;4.30;1.83;;;29.60;43.10;;;;;;10475166;28;20052;-33
2022/09/02 20:47:13;;;;;;;4.45;1.77;;;29.50;43.10;;;;;;10487851;28;20460;-35
2022/09/02 20:52:23;;;;;;;3.90;1.42;;;29.40;43.20;;;;;;10487105;28;21426;-34
2022/09/02 20:57:38;;;;;;;3.83;1.40;;;29.40;43.20;;;;;;10481612;28;20460;-36
2022/09/02 21:02:47;;;;;;;4.32;1.80;;;29.40;43.20;;;;;;10485721;28;20047;-34
2022/09/02 21:07:58;;;;;;;9.77;2.15;;;29.30;43.20;;;;;;10485412;28;20489;-35
2022/09/02 21:13:08;;;;;;;4.43;1.65;;;29.10;43.10;;;;;;10486256;28;20076;-34
2022/09/02 21:18:16;;;;;;;6.43;1.42;;;29.10;43.20;;;;;;10485580;28;20040;-35
2022/09/02 21:23:26;;;;;;;2.90;1.40;;;29.10;43.30;;;;;;10484024;28;20181;-35
2022/09/02 21:28:35;;;;;;;2.22;1.23;;;29.00;43.20;;;;;;10471593;28;20074;-34
2022/09/02 21:33:37;;;;;;;5.38;1.35;;;29.00;43.30;;;;;;10474896;28;20068;-36
2022/09/02 21:38:44;;;;;;;2.83;1.10;;;29.00;43.40;;;;;;10503159;28;20125;-35
2022/09/02 21:43:53;;;;;;;3.42;1.23;;;28.90;43.40;;;;;;10482877;28;20617;-35
2022/09/02 21:49:01;;;;;;;3.78;1.30;;;28.90;43.40;;;;;;10482109;28;20059;-35
2022/09/02 21:54:29;;;;;;;4.80;1.27;;;28.80;43.40;;;;;;10501669;28;20055;-34
2022/09/02 21:59:49;;;;;;;1.88;1.23;;;28.80;43.50;;;;;;10485706;28;20159;-35
2022/09/02 22:05:00;;;;;;;2.05;1.20;;;28.30;43.30;;;;;;10493538;28;20129;-35
2022/09/02 22:10:09;;;;;;;;;;;28.70;43.70;;;;;;10484697;28;20051;-36
2022/09/02 22:15:18;;;;;;;2.88;1.42;;;28.70;43.70;;;;;;10475428;28;19920;-34
2022/09/02 22:20:27;;;;;;;1.17;0.90;;;28.60;43.70;;;;;;10477594;28;20446;-35
2022/09/02 22:25:35;;;;;;;2.40;0.77;;;28.60;43.70;;;;;;10486825;28;20071;-35
2022/09/02 22:30:43;;;;;;;2.70;1.15;;;28.50;43.70;;;;;;10506893;28;20569;-38
2022/09/02 22:35:53;;;;;;;1.95;0.90;;;28.50;43.80;;;;;;10503950;28;20147;-35
2022/09/02 22:41:00;;;;;;;2.20;1.00;;;28.50;43.90;;;;;;10487244;28;20043;-34
2022/09/02 22:57:00;;;;;;;2.20;0.85;;;28.30;43.80;;;;;;10494234;28;20048;-35
2022/09/02 23:02:10;;;;;;;1.05;0.95;;;28.50;43.90;;;;;;10483361;28;20445;-35
2022/09/02 23:07:12;;;;;;;1.33;0.88;;;28.20;43.80;;;;;;10484365;28;20071;-35
2022/09/02 23:12:26;;;;;;;1.77;0.90;;;28.20;43.90;;;;;;10491015;28;20076;-34
2022/09/02 23:17:38;;;;;;;2.30;0.98;;;28.10;43.80;;;;;;10480636;28;20107;-35
2022/09/02 23:23:02;;;;;;;3.20;1.20;;;28.10;43.90;;;;;;10483080;28;20397;-35
2022/09/02 23:28:13;;;;;;;0.90;0.82;;;28.10;43.80;;;;;;10487627;28;20101;-34
2022/09/02 23:33:26;;;;;;;1.77;1.20;;;28.00;43.70;;;;;;10485706;28;20099;-35
2022/09/02 23:38:52;;;;;;;1.30;0.82;;;28.00;43.80;;;;;;10471120;28;20106;-35
2022/09/02 23:43:55;;;;;;;1.77;1.13;;;28.30;44.10;;;;;;10466668;28;20655;-34
2022/09/02 23:49:05;;;;;;;1.65;1.05;;;27.90;43.80;;;;;;10476525;28;20114;-34
2022/09/02 23:54:19;;;;;;;3.47;1.00;;;27.90;43.80;;;;;;10476196;28;20051;-34
2022/09/02 23:59:45;;;;;;;4.40;1.27;;;27.90;44.00;;;;;;10465765;28;20094;-34
